sensor_id;sensor_type;location;lat;lon;timestamp;temperature;humidity
76333;DHT22;71254;53.010;6.508;2023-07-13T00:01:46;16.30;79.00
76333;DHT22;71254;53.010;6.508;2023-07-13T00:04:15;16.40;79.20
76333;DHT22;71254;53.010;6.508;2023-07-13T00:06:41;16.30;79.30
76333;DHT22;71254;53.010;6.508;2023-07-13T00:09:11;16.30;79.40
76333;DHT22;71254;53.010;6.508;2023-07-13T00:11:38;16.30;79.60
76333;DHT22;71254;53.010;6.508;2023-07-13T00:14:04;16.40;79.90
76333;DHT22;71254;53.010;6.508;2023-07-13T00:16:30;16.40;79.90
76333;DHT22;71254;53.010;6.508;2023-07-13T00:18:55;16.40;79.90
76333;DHT22;71254;53.010;6.508;2023-07-13T00:21:21;16.40;80.00
76333;DHT22;71254;53.010;6.508;2023-07-13T00:23:47;16.40;80.10
76333;DHT22;71254;53.010;6.508;2023-07-13T00:26:12;16.40;80.40
76333;DHT22;71254;53.010;6.508;2023-07-13T00:28:39;16.50;80.10
76333;DHT22;71254;53.010;6.508;2023-07-13T00:31:05;16.50;80.20
76333;DHT22;71254;53.010;6.508;2023-07-13T00:33:31;16.50;80.30
76333;DHT22;71254;53.010;6.508;2023-07-13T00:35:57;16.60;80.70
76333;DHT22;71254;53.010;6.508;2023-07-13T00:38:23;16.60;81.10
76333;DHT22;71254;53.010;6.508;2023-07-13T00:40:49;16.50;81.20
76333;DHT22;71254;53.010;6.508;2023-07-13T00:43:18;16.60;81.30
76333;DHT22;71254;53.010;6.508;2023-07-13T00:48:16;16.60;81.60
76333;DHT22;71254;53.010;6.508;2023-07-13T00:50:44;16.60;81.50
76333;DHT22;71254;53.010;6.508;2023-07-13T00:53:10;16.60;81.70
76333;DHT22;71254;53.010;6.508;2023-07-13T00:55:38;16.60;81.30
76333;DHT22;71254;53.010;6.508;2023-07-13T00:58:04;16.70;81.80
76333;DHT22;71254;53.010;6.508;2023-07-13T01:00:34;16.70;81.80
76333;DHT22;71254;53.010;6.508;2023-07-13T01:03:02;16.70;81.60
76333;DHT22;71254;53.010;6.508;2023-07-13T01:05:32;16.70;82.30
76333;DHT22;71254;53.010;6.508;2023-07-13T01:07:59;16.60;82.30
76333;DHT22;71254;53.010;6.508;2023-07-13T01:10:26;16.70;82.50
76333;DHT22;71254;53.010;6.508;2023-07-13T01:12:52;16.60;82.70
76333;DHT22;71254;53.010;6.508;2023-07-13T01:15:37;16.60;82.50
76333;DHT22;71254;53.010;6.508;2023-07-13T01:18:05;16.70;83.80
76333;DHT22;71254;53.010;6.508;2023-07-13T01:20:32;16.60;83.20
76333;DHT22;71254;53.010;6.508;2023-07-13T01:23:11;16.60;83.40
76333;DHT22;71254;53.010;6.508;2023-07-13T01:25:38;16.60;84.40
76333;DHT22;71254;53.010;6.508;2023-07-13T01:28:08;16.60;84.10
76333;DHT22;71254;53.010;6.508;2023-07-13T01:30:35;16.60;84.20
76333;DHT22;71254;53.010;6.508;2023-07-13T01:33:01;16.70;84.30
76333;DHT22;71254;53.010;6.508;2023-07-13T01:35:27;16.70;84.30
76333;DHT22;71254;53.010;6.508;2023-07-13T01:37:53;16.70;84.70
76333;DHT22;71254;53.010;6.508;2023-07-13T01:40:20;16.70;84.70
76333;DHT22;71254;53.010;6.508;2023-07-13T01:42:45;16.70;85.30
76333;DHT22;71254;53.010;6.508;2023-07-13T01:45:11;16.80;85.00
76333;DHT22;71254;53.010;6.508;2023-07-13T01:47:37;16.70;85.10
76333;DHT22;71254;53.010;6.508;2023-07-13T01:50:03;16.70;84.80
76333;DHT22;71254;53.010;6.508;2023-07-13T01:52:29;16.70;85.00
76333;DHT22;71254;53.010;6.508;2023-07-13T01:54:54;16.70;85.00
76333;DHT22;71254;53.010;6.508;2023-07-13T01:57:20;16.70;85.50
76333;DHT22;71254;53.010;6.508;2023-07-13T01:59:45;16.70;85.60
76333;DHT22;71254;53.010;6.508;2023-07-13T02:02:11;16.70;85.80
76333;DHT22;71254;53.010;6.508;2023-07-13T02:04:37;16.70;86.10
76333;DHT22;71254;53.010;6.508;2023-07-13T02:07:03;16.60;85.30
76333;DHT22;71254;53.010;6.508;2023-07-13T02:09:28;16.60;85.80
76333;DHT22;71254;53.010;6.508;2023-07-13T02:11:54;16.60;85.70
76333;DHT22;71254;53.010;6.508;2023-07-13T02:14:20;16.50;85.60
76333;DHT22;71254;53.010;6.508;2023-07-13T02:16:46;16.50;85.70
76333;DHT22;71254;53.010;6.508;2023-07-13T02:19:11;16.50;85.60
76333;DHT22;71254;53.010;6.508;2023-07-13T02:21:37;16.50;85.60
76333;DHT22;71254;53.010;6.508;2023-07-13T02:24:03;16.40;85.70
76333;DHT22;71254;53.010;6.508;2023-07-13T02:26:28;16.40;85.90
76333;DHT22;71254;53.010;6.508;2023-07-13T02:28:54;16.40;85.70
76333;DHT22;71254;53.010;6.508;2023-07-13T02:31:20;16.30;85.90
76333;DHT22;71254;53.010;6.508;2023-07-13T02:33:46;16.30;86.00
76333;DHT22;71254;53.010;6.508;2023-07-13T02:36:12;16.30;86.00
76333;DHT22;71254;53.010;6.508;2023-07-13T02:38:39;16.20;85.80
76333;DHT22;71254;53.010;6.508;2023-07-13T02:41:07;16.20;86.20
76333;DHT22;71254;53.010;6.508;2023-07-13T02:43:34;16.10;86.80
76333;DHT22;71254;53.010;6.508;2023-07-13T02:46:01;16.10;86.40
76333;DHT22;71254;53.010;6.508;2023-07-13T02:48:33;16.00;87.00
76333;DHT22;71254;53.010;6.508;2023-07-13T02:50:58;16.00;87.00
76333;DHT22;71254;53.010;6.508;2023-07-13T02:53:24;16.00;87.40
76333;DHT22;71254;53.010;6.508;2023-07-13T02:55:50;16.00;87.80
76333;DHT22;71254;53.010;6.508;2023-07-13T02:58:16;16.00;88.00
76333;DHT22;71254;53.010;6.508;2023-07-13T03:00:43;16.10;87.80
76333;DHT22;71254;53.010;6.508;2023-07-13T03:03:11;16.10;87.90
76333;DHT22;71254;53.010;6.508;2023-07-13T03:05:40;16.00;88.00
76333;DHT22;71254;53.010;6.508;2023-07-13T03:08:06;16.10;87.80
76333;DHT22;71254;53.010;6.508;2023-07-13T03:10:32;16.10;88.00
76333;DHT22;71254;53.010;6.508;2023-07-13T03:12:58;16.00;87.90
76333;DHT22;71254;53.010;6.508;2023-07-13T03:15:23;16.00;88.10
76333;DHT22;71254;53.010;6.508;2023-07-13T03:17:49;15.90;88.10
76333;DHT22;71254;53.010;6.508;2023-07-13T03:20:15;15.90;88.20
76333;DHT22;71254;53.010;6.508;2023-07-13T03:22:40;15.80;88.40
76333;DHT22;71254;53.010;6.508;2023-07-13T03:25:07;15.90;88.60
76333;DHT22;71254;53.010;6.508;2023-07-13T03:27:33;15.90;88.80
76333;DHT22;71254;53.010;6.508;2023-07-13T03:29:59;15.90;88.80
76333;DHT22;71254;53.010;6.508;2023-07-13T03:32:24;16.00;88.80
76333;DHT22;71254;53.010;6.508;2023-07-13T03:34:50;16.00;88.70
76333;DHT22;71254;53.010;6.508;2023-07-13T03:37:16;16.00;88.40
76333;DHT22;71254;53.010;6.508;2023-07-13T03:39:42;16.00;88.50
76333;DHT22;71254;53.010;6.508;2023-07-13T03:42:08;15.90;88.20
76333;DHT22;71254;53.010;6.508;2023-07-13T03:44:34;15.90;88.40
76333;DHT22;71254;53.010;6.508;2023-07-13T03:47:00;15.90;88.20
76333;DHT22;71254;53.010;6.508;2023-07-13T03:49:25;15.90;88.40
76333;DHT22;71254;53.010;6.508;2023-07-13T03:51:51;15.90;88.50
76333;DHT22;71254;53.010;6.508;2023-07-13T03:54:17;15.90;88.50
76333;DHT22;71254;53.010;6.508;2023-07-13T03:56:42;15.90;88.70
76333;DHT22;71254;53.010;6.508;2023-07-13T03:59:08;15.90;88.60
76333;DHT22;71254;53.010;6.508;2023-07-13T04:01:34;16.00;88.70
76333;DHT22;71254;53.010;6.508;2023-07-13T04:03:59;16.00;88.60
76333;DHT22;71254;53.010;6.508;2023-07-13T04:06:30;16.00;88.70
76333;DHT22;71254;53.010;6.508;2023-07-13T04:08:58;16.10;88.60
76333;DHT22;71254;53.010;6.508;2023-07-13T04:11:26;16.10;88.70
76333;DHT22;71254;53.010;6.508;2023-07-13T04:13:52;16.10;88.40
76333;DHT22;71254;53.010;6.508;2023-07-13T04:16:18;16.20;88.50
76333;DHT22;71254;53.010;6.508;2023-07-13T04:18:45;16.20;88.50
76333;DHT22;71254;53.010;6.508;2023-07-13T04:21:12;16.20;88.50
76333;DHT22;71254;53.010;6.508;2023-07-13T04:23:38;16.20;88.60
76333;DHT22;71254;53.010;6.508;2023-07-13T04:26:05;16.30;88.50
76333;DHT22;71254;53.010;6.508;2023-07-13T04:28:30;16.20;88.40
76333;DHT22;71254;53.010;6.508;2023-07-13T04:30:56;16.30;88.10
76333;DHT22;71254;53.010;6.508;2023-07-13T04:33:22;16.30;88.20
76333;DHT22;71254;53.010;6.508;2023-07-13T04:35:52;16.30;88.40
76333;DHT22;71254;53.010;6.508;2023-07-13T04:38:20;16.30;88.50
76333;DHT22;71254;53.010;6.508;2023-07-13T04:40:47;16.30;88.60
76333;DHT22;71254;53.010;6.508;2023-07-13T04:43:13;16.40;88.40
76333;DHT22;71254;53.010;6.508;2023-07-13T04:45:39;16.40;88.40
76333;DHT22;71254;53.010;6.508;2023-07-13T04:48:05;16.40;88.50
76333;DHT22;71254;53.010;6.508;2023-07-13T04:50:31;16.50;88.50
76333;DHT22;71254;53.010;6.508;2023-07-13T04:52:56;16.60;88.30
76333;DHT22;71254;53.010;6.508;2023-07-13T04:55:22;16.70;88.20
76333;DHT22;71254;53.010;6.508;2023-07-13T04:57:48;16.70;88.10
76333;DHT22;71254;53.010;6.508;2023-07-13T05:00:14;16.70;88.10
76333;DHT22;71254;53.010;6.508;2023-07-13T05:02:44;16.80;87.90
76333;DHT22;71254;53.010;6.508;2023-07-13T05:05:10;16.80;87.80
76333;DHT22;71254;53.010;6.508;2023-07-13T05:07:36;16.80;87.30
76333;DHT22;71254;53.010;6.508;2023-07-13T05:10:02;16.80;87.30
76333;DHT22;71254;53.010;6.508;2023-07-13T05:12:29;16.90;87.30
76333;DHT22;71254;53.010;6.508;2023-07-13T05:14:55;16.90;87.10
76333;DHT22;71254;53.010;6.508;2023-07-13T05:17:21;16.90;87.10
76333;DHT22;71254;53.010;6.508;2023-07-13T05:19:47;17.00;86.70
76333;DHT22;71254;53.010;6.508;2023-07-13T05:22:12;17.00;86.50
76333;DHT22;71254;53.010;6.508;2023-07-13T05:24:38;17.00;86.50
76333;DHT22;71254;53.010;6.508;2023-07-13T05:27:04;17.10;86.50
76333;DHT22;71254;53.010;6.508;2023-07-13T05:29:30;17.10;86.40
76333;DHT22;71254;53.010;6.508;2023-07-13T05:31:56;17.20;86.60
76333;DHT22;71254;53.010;6.508;2023-07-13T05:34:22;17.20;86.80
76333;DHT22;71254;53.010;6.508;2023-07-13T05:36:48;17.30;86.70
76333;DHT22;71254;53.010;6.508;2023-07-13T05:39:15;17.40;86.40
76333;DHT22;71254;53.010;6.508;2023-07-13T05:41:40;17.40;86.30
76333;DHT22;71254;53.010;6.508;2023-07-13T05:44:06;17.40;86.40
76333;DHT22;71254;53.010;6.508;2023-07-13T05:46:32;17.40;86.70
76333;DHT22;71254;53.010;6.508;2023-07-13T05:48:58;17.50;86.70
76333;DHT22;71254;53.010;6.508;2023-07-13T05:51:24;17.60;86.50
76333;DHT22;71254;53.010;6.508;2023-07-13T05:53:49;17.70;86.10
76333;DHT22;71254;53.010;6.508;2023-07-13T05:56:15;17.70;86.10
76333;DHT22;71254;53.010;6.508;2023-07-13T05:58:41;17.80;85.90
76333;DHT22;71254;53.010;6.508;2023-07-13T06:01:11;17.90;85.70
76333;DHT22;71254;53.010;6.508;2023-07-13T06:03:37;18.00;85.60
76333;DHT22;71254;53.010;6.508;2023-07-13T06:06:07;18.10;85.60
76333;DHT22;71254;53.010;6.508;2023-07-13T06:08:33;18.20;85.40
76333;DHT22;71254;53.010;6.508;2023-07-13T06:13:28;18.30;85.30
76333;DHT22;71254;53.010;6.508;2023-07-13T06:15:54;18.40;85.00
76333;DHT22;71254;53.010;6.508;2023-07-13T06:18:20;18.50;85.00
76333;DHT22;71254;53.010;6.508;2023-07-13T06:20:45;18.60;84.90
76333;DHT22;71254;53.010;6.508;2023-07-13T06:23:11;18.70;84.80
76333;DHT22;71254;53.010;6.508;2023-07-13T06:25:37;18.80;84.90
76333;DHT22;71254;53.010;6.508;2023-07-13T06:28:02;19.00;85.00
76333;DHT22;71254;53.010;6.508;2023-07-13T06:30:28;19.20;84.00
76333;DHT22;71254;53.010;6.508;2023-07-13T06:32:54;19.50;83.10
76333;DHT22;71254;53.010;6.508;2023-07-13T06:35:19;19.80;82.10
76333;DHT22;71254;53.010;6.508;2023-07-13T06:37:45;20.10;81.10
76333;DHT22;71254;53.010;6.508;2023-07-13T06:40:12;20.40;80.30
76333;DHT22;71254;53.010;6.508;2023-07-13T06:42:38;20.50;79.40
76333;DHT22;71254;53.010;6.508;2023-07-13T06:45:04;20.80;79.20
76333;DHT22;71254;53.010;6.508;2023-07-13T06:47:30;21.00;78.60
76333;DHT22;71254;53.010;6.508;2023-07-13T06:49:56;21.20;77.80
76333;DHT22;71254;53.010;6.508;2023-07-13T06:52:21;21.30;76.90
76333;DHT22;71254;53.010;6.508;2023-07-13T06:54:47;21.30;76.10
76333;DHT22;71254;53.010;6.508;2023-07-13T06:57:13;21.30;75.20
76333;DHT22;71254;53.010;6.508;2023-07-13T06:59:38;21.30;75.10
76333;DHT22;71254;53.010;6.508;2023-07-13T07:02:04;21.60;74.60
76333;DHT22;71254;53.010;6.508;2023-07-13T07:04:30;21.90;73.70
76333;DHT22;71254;53.010;6.508;2023-07-13T07:06:56;22.10;73.00
76333;DHT22;71254;53.010;6.508;2023-07-13T07:09:21;22.30;71.40
76333;DHT22;71254;53.010;6.508;2023-07-13T07:11:47;22.20;70.90
76333;DHT22;71254;53.010;6.508;2023-07-13T07:14:13;22.00;69.90
76333;DHT22;71254;53.010;6.508;2023-07-13T07:16:38;21.80;69.70
76333;DHT22;71254;53.010;6.508;2023-07-13T07:19:04;21.70;69.70
76333;DHT22;71254;53.010;6.508;2023-07-13T07:21:29;21.50;69.00
76333;DHT22;71254;53.010;6.508;2023-07-13T07:23:56;21.50;69.00
76333;DHT22;71254;53.010;6.508;2023-07-13T07:26:22;21.40;68.80
76333;DHT22;71254;53.010;6.508;2023-07-13T07:28:48;21.40;69.00
76333;DHT22;71254;53.010;6.508;2023-07-13T07:31:14;21.40;69.30
76333;DHT22;71254;53.010;6.508;2023-07-13T07:33:39;21.50;68.60
76333;DHT22;71254;53.010;6.508;2023-07-13T07:36:05;21.50;68.10
76333;DHT22;71254;53.010;6.508;2023-07-13T07:38:31;21.60;67.80
76333;DHT22;71254;53.010;6.508;2023-07-13T07:40:57;21.70;68.40
76333;DHT22;71254;53.010;6.508;2023-07-13T07:43:23;21.70;68.00
76333;DHT22;71254;53.010;6.508;2023-07-13T07:45:48;21.60;67.00
76333;DHT22;71254;53.010;6.508;2023-07-13T07:48:14;21.40;66.10
76333;DHT22;71254;53.010;6.508;2023-07-13T07:50:40;21.10;66.70
76333;DHT22;71254;53.010;6.508;2023-07-13T07:53:07;20.90;67.60
76333;DHT22;71254;53.010;6.508;2023-07-13T07:55:34;20.70;68.40
76333;DHT22;71254;53.010;6.508;2023-07-13T07:58:00;20.70;69.00
76333;DHT22;71254;53.010;6.508;2023-07-13T08:00:26;20.70;69.70
76333;DHT22;71254;53.010;6.508;2023-07-13T08:02:52;20.70;70.30
76333;DHT22;71254;53.010;6.508;2023-07-13T08:05:18;20.80;71.50
76333;DHT22;71254;53.010;6.508;2023-07-13T08:07:43;20.70;71.80
76333;DHT22;71254;53.010;6.508;2023-07-13T08:10:09;20.70;72.70
76333;DHT22;71254;53.010;6.508;2023-07-13T08:12:37;20.80;73.30
76333;DHT22;71254;53.010;6.508;2023-07-13T08:15:04;20.90;73.00
76333;DHT22;71254;53.010;6.508;2023-07-13T08:17:30;21.00;73.40
76333;DHT22;71254;53.010;6.508;2023-07-13T08:19:55;20.90;72.90
76333;DHT22;71254;53.010;6.508;2023-07-13T08:22:21;20.80;73.30
76333;DHT22;71254;53.010;6.508;2023-07-13T08:24:47;20.80;73.70
76333;DHT22;71254;53.010;6.508;2023-07-13T08:27:20;20.80;73.20
76333;DHT22;71254;53.010;6.508;2023-07-13T08:29:47;20.80;72.90
76333;DHT22;71254;53.010;6.508;2023-07-13T08:32:13;20.70;72.60
76333;DHT22;71254;53.010;6.508;2023-07-13T08:34:39;20.60;73.10
76333;DHT22;71254;53.010;6.508;2023-07-13T08:37:06;20.60;73.60
76333;DHT22;71254;53.010;6.508;2023-07-13T08:39:32;20.50;73.50
76333;DHT22;71254;53.010;6.508;2023-07-13T08:45:08;20.30;71.80
76333;DHT22;71254;53.010;6.508;2023-07-13T08:47:41;20.10;72.10
76333;DHT22;71254;53.010;6.508;2023-07-13T08:50:12;19.70;72.20
76333;DHT22;71254;53.010;6.508;2023-07-13T08:52:42;19.30;73.80
76333;DHT22;71254;53.010;6.508;2023-07-13T08:55:15;19.00;73.90
76333;DHT22;71254;53.010;6.508;2023-07-13T08:57:42;18.90;74.20
76333;DHT22;71254;53.010;6.508;2023-07-13T09:00:11;18.70;74.70
76333;DHT22;71254;53.010;6.508;2023-07-13T09:02:58;18.60;75.40
76333;DHT22;71254;53.010;6.508;2023-07-13T09:05:38;18.60;77.30
76333;DHT22;71254;53.010;6.508;2023-07-13T09:08:29;18.80;77.30
76333;DHT22;71254;53.010;6.508;2023-07-13T09:11:14;19.20;79.30
76333;DHT22;71254;53.010;6.508;2023-07-13T09:13:56;19.50;78.90
76333;DHT22;71254;53.010;6.508;2023-07-13T09:16:23;19.80;79.00
76333;DHT22;71254;53.010;6.508;2023-07-13T09:18:56;20.00;78.60
76333;DHT22;71254;53.010;6.508;2023-07-13T09:21:37;20.30;77.90
76333;DHT22;71254;53.010;6.508;2023-07-13T09:24:28;20.60;76.30
76333;DHT22;71254;53.010;6.508;2023-07-13T09:26:56;20.70;75.40
76333;DHT22;71254;53.010;6.508;2023-07-13T09:29:33;20.80;76.00
76333;DHT22;71254;53.010;6.508;2023-07-13T09:32:06;20.90;75.70
76333;DHT22;71254;53.010;6.508;2023-07-13T09:34:33;20.90;75.00
76333;DHT22;71254;53.010;6.508;2023-07-13T09:36:59;20.80;74.30
76333;DHT22;71254;53.010;6.508;2023-07-13T09:39:29;20.60;74.80
76333;DHT22;71254;53.010;6.508;2023-07-13T09:42:03;20.50;75.60
76333;DHT22;71254;53.010;6.508;2023-07-13T09:44:36;20.60;77.50
76333;DHT22;71254;53.010;6.508;2023-07-13T09:47:03;21.20;78.20
76333;DHT22;71254;53.010;6.508;2023-07-13T09:49:33;21.80;77.00
76333;DHT22;71254;53.010;6.508;2023-07-13T09:52:02;22.40;75.90
76333;DHT22;71254;53.010;6.508;2023-07-13T09:54:29;22.90;72.90
76333;DHT22;71254;53.010;6.508;2023-07-13T09:56:59;23.30;70.60
76333;DHT22;71254;53.010;6.508;2023-07-13T09:59:34;23.80;70.40
76333;DHT22;71254;53.010;6.508;2023-07-13T10:02:00;24.30;67.40
76333;DHT22;71254;53.010;6.508;2023-07-13T10:04:32;24.30;65.90
76333;DHT22;71254;53.010;6.508;2023-07-13T10:07:08;24.00;64.40
76333;DHT22;71254;53.010;6.508;2023-07-13T10:09:36;23.50;65.40
76333;DHT22;71254;53.010;6.508;2023-07-13T10:12:03;23.10;67.00
76333;DHT22;71254;53.010;6.508;2023-07-13T10:14:29;22.70;68.30
76333;DHT22;71254;53.010;6.508;2023-07-13T10:17:01;22.30;70.30
76333;DHT22;71254;53.010;6.508;2023-07-13T10:19:31;22.00;70.20
76333;DHT22;71254;53.010;6.508;2023-07-13T10:24:50;21.10;76.30
76333;DHT22;71254;53.010;6.508;2023-07-13T10:27:19;20.70;78.80
76333;DHT22;71254;53.010;6.508;2023-07-13T10:32:14;20.40;81.70
76333;DHT22;71254;53.010;6.508;2023-07-13T10:34:43;20.30;82.70
76333;DHT22;71254;53.010;6.508;2023-07-13T10:37:26;20.30;82.70
76333;DHT22;71254;53.010;6.508;2023-07-13T10:39:55;20.10;81.30
76333;DHT22;71254;53.010;6.508;2023-07-13T10:42:30;20.10;87.60
76333;DHT22;71254;53.010;6.508;2023-07-13T10:44:58;20.60;88.10
76333;DHT22;71254;53.010;6.508;2023-07-13T10:47:24;20.80;86.40
76333;DHT22;71254;53.010;6.508;2023-07-13T10:49:53;21.00;85.80
76333;DHT22;71254;53.010;6.508;2023-07-13T10:55:04;21.00;77.30
76333;DHT22;71254;53.010;6.508;2023-07-13T10:57:41;21.00;84.60
76333;DHT22;71254;53.010;6.508;2023-07-13T11:00:15;21.50;84.20
76333;DHT22;71254;53.010;6.508;2023-07-13T11:02:41;22.10;83.30
76333;DHT22;71254;53.010;6.508;2023-07-13T11:05:28;22.60;85.30
76333;DHT22;71254;53.010;6.508;2023-07-13T11:08:03;23.30;80.90
76333;DHT22;71254;53.010;6.508;2023-07-13T11:10:52;23.80;80.30
76333;DHT22;71254;53.010;6.508;2023-07-13T11:18:52;24.80;73.10
76333;DHT22;71254;53.010;6.508;2023-07-13T11:21:32;25.00;72.60
76333;DHT22;71254;53.010;6.508;2023-07-13T11:24:28;25.00;71.60
76333;DHT22;71254;53.010;6.508;2023-07-13T11:26:52;24.70;65.90
76333;DHT22;71254;53.010;6.508;2023-07-13T11:29:24;24.30;66.40
76333;DHT22;71254;53.010;6.508;2023-07-13T11:31:56;24.00;68.10
76333;DHT22;71254;53.010;6.508;2023-07-13T11:34:35;24.30;66.70
76333;DHT22;71254;53.010;6.508;2023-07-13T11:37:01;24.60;65.30
76333;DHT22;71254;53.010;6.508;2023-07-13T11:39:33;25.00;68.80
76333;DHT22;71254;53.010;6.508;2023-07-13T11:42:03;25.00;60.80
76333;DHT22;71254;53.010;6.508;2023-07-13T11:44:30;25.10;64.10
76333;DHT22;71254;53.010;6.508;2023-07-13T11:47:09;25.40;57.60
76333;DHT22;71254;53.010;6.508;2023-07-13T11:49:43;25.80;62.80
76333;DHT22;71254;53.010;6.508;2023-07-13T11:52:20;26.20;60.40
76333;DHT22;71254;53.010;6.508;2023-07-13T11:54:57;26.60;61.90
76333;DHT22;71254;53.010;6.508;2023-07-13T11:57:27;26.70;58.00
76333;DHT22;71254;53.010;6.508;2023-07-13T11:59:55;26.70;49.70
76333;DHT22;71254;53.010;6.508;2023-07-13T12:02:33;26.60;62.50
76333;DHT22;71254;53.010;6.508;2023-07-13T12:05:00;26.60;52.90
76333;DHT22;71254;53.010;6.508;2023-07-13T12:07:30;26.80;58.50
76333;DHT22;71254;53.010;6.508;2023-07-13T12:12:36;27.20;51.90
76333;DHT22;71254;53.010;6.508;2023-07-13T12:15:06;27.30;60.00
76333;DHT22;71254;53.010;6.508;2023-07-13T12:17:34;27.10;56.60
76333;DHT22;71254;53.010;6.508;2023-07-13T12:20:03;26.80;56.70
76333;DHT22;71254;53.010;6.508;2023-07-13T12:22:34;26.40;56.60
76333;DHT22;71254;53.010;6.508;2023-07-13T12:25:00;26.00;55.50
76333;DHT22;71254;53.010;6.508;2023-07-13T12:27:27;25.90;57.60
76333;DHT22;71254;53.010;6.508;2023-07-13T12:30:05;26.00;56.60
76333;DHT22;71254;53.010;6.508;2023-07-13T12:32:31;26.30;49.00
76333;DHT22;71254;53.010;6.508;2023-07-13T12:35:17;26.30;55.50
76333;DHT22;71254;53.010;6.508;2023-07-13T12:37:46;26.50;48.90
76333;DHT22;71254;53.010;6.508;2023-07-13T12:40:17;26.60;56.30
76333;DHT22;71254;53.010;6.508;2023-07-13T12:42:47;26.90;52.70
76333;DHT22;71254;53.010;6.508;2023-07-13T12:47:49;27.50;49.50
76333;DHT22;71254;53.010;6.508;2023-07-13T12:50:18;27.50;52.80
76333;DHT22;71254;53.010;6.508;2023-07-13T12:52:44;27.60;55.00
76333;DHT22;71254;53.010;6.508;2023-07-13T12:55:17;27.60;43.10
76333;DHT22;71254;53.010;6.508;2023-07-13T12:57:51;27.30;50.70
76333;DHT22;71254;53.010;6.508;2023-07-13T13:00:23;26.60;48.40
76333;DHT22;71254;53.010;6.508;2023-07-13T13:02:55;25.90;48.90
76333;DHT22;71254;53.010;6.508;2023-07-13T13:05:22;25.50;52.50
76333;DHT22;71254;53.010;6.508;2023-07-13T13:07:49;25.60;54.10
76333;DHT22;71254;53.010;6.508;2023-07-13T13:10:15;25.90;53.50
76333;DHT22;71254;53.010;6.508;2023-07-13T13:12:41;26.30;54.70
76333;DHT22;71254;53.010;6.508;2023-07-13T13:15:11;26.00;53.20
76333;DHT22;71254;53.010;6.508;2023-07-13T13:17:37;25.80;53.40
76333;DHT22;71254;53.010;6.508;2023-07-13T13:20:20;25.90;53.10
76333;DHT22;71254;53.010;6.508;2023-07-13T13:22:46;26.00;49.10
76333;DHT22;71254;53.010;6.508;2023-07-13T13:25:14;26.40;55.00
76333;DHT22;71254;53.010;6.508;2023-07-13T13:27:41;26.80;52.20
76333;DHT22;71254;53.010;6.508;2023-07-13T13:30:16;27.10;51.80
76333;DHT22;71254;53.010;6.508;2023-07-13T13:32:44;27.20;48.40
76333;DHT22;71254;53.010;6.508;2023-07-13T13:35:18;27.40;49.70
76333;DHT22;71254;53.010;6.508;2023-07-13T13:37:46;27.40;46.90
76333;DHT22;71254;53.010;6.508;2023-07-13T13:40:18;27.50;48.10
76333;DHT22;71254;53.010;6.508;2023-07-13T13:42:44;27.80;46.30
76333;DHT22;71254;53.010;6.508;2023-07-13T13:45:11;27.90;46.00
76333;DHT22;71254;53.010;6.508;2023-07-13T13:47:39;27.90;45.80
76333;DHT22;71254;53.010;6.508;2023-07-13T13:50:16;28.10;46.30
76333;DHT22;71254;53.010;6.508;2023-07-13T13:52:42;28.40;43.50
76333;DHT22;71254;53.010;6.508;2023-07-13T13:55:17;28.20;44.20
76333;DHT22;71254;53.010;6.508;2023-07-13T13:57:45;27.80;42.70
76333;DHT22;71254;53.010;6.508;2023-07-13T14:00:12;28.00;43.60
76333;DHT22;71254;53.010;6.508;2023-07-13T14:02:41;28.20;43.30
76333;DHT22;71254;53.010;6.508;2023-07-13T14:05:13;28.00;42.10
76333;DHT22;71254;53.010;6.508;2023-07-13T14:07:39;28.20;42.60
76333;DHT22;71254;53.010;6.508;2023-07-13T14:10:12;28.50;42.80
76333;DHT22;71254;53.010;6.508;2023-07-13T14:12:41;28.70;43.00
76333;DHT22;71254;53.010;6.508;2023-07-13T14:15:18;28.80;42.60
76333;DHT22;71254;53.010;6.508;2023-07-13T14:17:45;28.60;41.80
76333;DHT22;71254;53.010;6.508;2023-07-13T14:20:12;28.20;42.90
76333;DHT22;71254;53.010;6.508;2023-07-13T14:22:37;28.50;44.60
76333;DHT22;71254;53.010;6.508;2023-07-13T14:25:04;28.90;43.90
76333;DHT22;71254;53.010;6.508;2023-07-13T14:27:29;29.10;42.40
76333;DHT22;71254;53.010;6.508;2023-07-13T14:29:55;28.40;42.90
76333;DHT22;71254;53.010;6.508;2023-07-13T14:32:21;28.20;43.30
76333;DHT22;71254;53.010;6.508;2023-07-13T14:34:46;28.30;43.20
76333;DHT22;71254;53.010;6.508;2023-07-13T14:37:14;28.50;43.10
76333;DHT22;71254;53.010;6.508;2023-07-13T14:39:43;28.90;42.40
76333;DHT22;71254;53.010;6.508;2023-07-13T14:42:09;29.40;42.50
76333;DHT22;71254;53.010;6.508;2023-07-13T14:44:37;29.40;40.00
76333;DHT22;71254;53.010;6.508;2023-07-13T14:47:05;29.30;39.90
76333;DHT22;71254;53.010;6.508;2023-07-13T14:49:37;29.00;40.80
76333;DHT22;71254;53.010;6.508;2023-07-13T14:52:21;28.90;42.40
76333;DHT22;71254;53.010;6.508;2023-07-13T14:54:48;29.50;41.00
76333;DHT22;71254;53.010;6.508;2023-07-13T14:57:18;29.80;40.30
76333;DHT22;71254;53.010;6.508;2023-07-13T14:59:44;30.00;39.80
76333;DHT22;71254;53.010;6.508;2023-07-13T15:04:55;29.30;37.70
76333;DHT22;71254;53.010;6.508;2023-07-13T15:07:21;28.10;41.20
76333;DHT22;71254;53.010;6.508;2023-07-13T15:09:48;27.80;42.80
76333;DHT22;71254;53.010;6.508;2023-07-13T15:12:14;28.30;42.30
76333;DHT22;71254;53.010;6.508;2023-07-13T15:14:40;28.40;41.70
76333;DHT22;71254;53.010;6.508;2023-07-13T15:17:31;28.50;41.30
76333;DHT22;71254;53.010;6.508;2023-07-13T15:19:58;29.00;40.60
76333;DHT22;71254;53.010;6.508;2023-07-13T15:22:24;29.50;40.30
76333;DHT22;71254;53.010;6.508;2023-07-13T15:24:50;30.00;39.30
76333;DHT22;71254;53.010;6.508;2023-07-13T15:27:15;30.00;40.00
76333;DHT22;71254;53.010;6.508;2023-07-13T15:29:41;30.10;40.20
76333;DHT22;71254;53.010;6.508;2023-07-13T15:32:13;30.30;39.90
76333;DHT22;71254;53.010;6.508;2023-07-13T15:34:39;30.40;39.80
76333;DHT22;71254;53.010;6.508;2023-07-13T15:37:24;30.40;39.40
76333;DHT22;71254;53.010;6.508;2023-07-13T15:39:50;30.40;38.70
76333;DHT22;71254;53.010;6.508;2023-07-13T15:42:19;30.40;39.60
76333;DHT22;71254;53.010;6.508;2023-07-13T15:44:45;29.80;39.50
76333;DHT22;71254;53.010;6.508;2023-07-13T15:47:13;28.40;40.00
76333;DHT22;71254;53.010;6.508;2023-07-13T15:49:41;28.00;42.00
76333;DHT22;71254;53.010;6.508;2023-07-13T15:52:22;28.60;41.30
76333;DHT22;71254;53.010;6.508;2023-07-13T15:54:49;29.10;40.80
76333;DHT22;71254;53.010;6.508;2023-07-13T15:57:15;29.40;40.10
76333;DHT22;71254;53.010;6.508;2023-07-13T15:59:42;29.70;40.70
76333;DHT22;71254;53.010;6.508;2023-07-13T16:02:19;29.80;39.70
76333;DHT22;71254;53.010;6.508;2023-07-13T16:04:45;29.10;40.10
76333;DHT22;71254;53.010;6.508;2023-07-13T16:07:14;28.90;40.80